Cody, WY

5:58 AM MDT on August 28, 2014 (GMT -0600)
RAWS RATTLESNAKE MTN. WY US | Change Station
CLOSE
Current Station
Personal Weather Station
Location: Cody, WY
Elevation: 8400 ft
Nearby Weather Stations

Elev 8400 ft 44.57 °N, 109.26 °W | Updated 1 hour ago

Clear
Clear
53 °F
Feels Like 53 °F
N
9
Wind Variable Wind from West
Gusts 20.0 mph

Today
High -- | Low -- °F
--% Chance of Precip.
Yesterday
High -- | Low -- °F
Precip. -- in
6:34 AM 8:00 PM
Waxing Crescent, 8% visible
Pressure 30.15 in
Visibility 10.0 miles
Clouds Clear
Dew Point 33 °F
Humidity 47%
Rainfall 0.00 in
Snow Depth 1 in
UV 0 out of 12
Pollen 8.80 out of 12
Air Quality Not available.
Flu Activity Not available.
METAR KCOD 281155Z 17003KT 10SM CLR 14/07 A3015 RMK AO1 10170 20120 52003

More Conditions Fewer Conditions

Pressure 30.15 in
Visibility 10.0 miles
Clouds Clear
Dew Point 33 °F
Humidity 47%
Rainfall 0.00 in
Snow Depth 1 in
UV 0 out of 12
Pollen 8.80 out of 12
Air Quality Not available.
Flu Activity Not available.
METAR KCOD 281155Z 17003KT 10SM CLR 14/07 A3015 RMK AO1 10170 20120 52003

More Conditions Fewer Conditions

10-Day Weather Forecast

Almanac

Astronomy

Aug. 28, 2014 Rise Set
Actual Time 6:34 AM MDT 8:00 PM MDT
Civil Twilight 6:04 AM MDT 8:30 PM MDT
Nautical Twilight 5:27 AM MDT 9:07 PM MDT
Astronomical Twilight 4:48 AM MDT 9:46 PM MDT
Moon 9:39 AM MDT 9:16 PM MDT
Length of Visible Light 14h 26m
Length of Day
13h 25m
Tomorrow will be 2m 56s shorter.
Waxing Crescent, 8% of the Moon is Illuminated
Today
Waxing Crescent
Sep 2
First Quarter
Sep 8
Full
Sep 15
Last Quarter
Sep 24
New

Today's Extremes

State Highs State Lows

Community

WunderPhotos

Upload Photos

1,747,929 photos uploaded!

Nearby

Snow Depth

Station Depth Elevation
Marquette 1 in 8760 ft
Evening Star 0 in 9200 ft
Blackwater 0 in 9780 ft
Parker Peak 0 in 9400 ft
Sylvan Road 0 in 7120 ft

Earthquake Activity

City Distance Mag. Time & Date
No recent earthquake activity has been reported nearby.
Minimum magnitude displayed is 2.5.

Coastal Water Temperatures

Place Temperature
No Stations Reporting

Nearby Weather Stations